createdAt,value
2019-03-09T00:00:47.072Z,2.03
2019-03-09T00:02:51.425Z,2.33
2019-03-09T00:04:55.803Z,2.70
2019-03-09T00:07:00.185Z,2.60
2019-03-09T00:09:05.406Z,1.90
2019-03-09T00:11:09.766Z,1.63
2019-03-09T00:13:14.117Z,2.30
2019-03-09T00:15:18.470Z,2.60
2019-03-09T00:17:22.836Z,1.93
2019-03-09T00:19:27.149Z,2.00
2019-03-09T00:21:31.487Z,1.90
2019-03-09T00:23:41.209Z,1.90
2019-03-09T00:25:49.699Z,2.50
2019-03-09T00:28:00.058Z,1.50
2019-03-09T00:30:10.287Z,2.10
2019-03-09T00:32:17.214Z,2.07
2019-03-09T00:34:21.545Z,2.17
2019-03-09T00:36:25.846Z,2.00
2019-03-09T00:38:30.250Z,1.87
2019-03-09T00:40:34.571Z,1.80
2019-03-09T00:42:38.908Z,1.50
2019-03-09T00:44:43.275Z,1.77
2019-03-09T00:46:47.602Z,1.87
2019-03-09T00:48:51.968Z,2.63
2019-03-09T00:50:56.315Z,2.20
2019-03-09T00:53:00.737Z,2.40
2019-03-09T00:55:05.685Z,2.00
2019-03-09T00:57:10.052Z,2.40
2019-03-09T00:59:14.367Z,1.70
2019-03-09T01:01:18.754Z,1.70
2019-03-09T01:03:23.113Z,1.10
2019-03-09T01:05:27.473Z,2.00
2019-03-09T01:07:31.856Z,2.40
2019-03-09T01:09:36.203Z,1.60
2019-03-09T01:11:40.511Z,2.20
2019-03-09T01:13:44.915Z,1.30
2019-03-09T01:15:49.246Z,1.20
2019-03-09T01:17:53.605Z,0.87
2019-03-09T01:19:57.906Z,1.87
2019-03-09T01:22:02.281Z,2.00
2019-03-09T01:24:06.698Z,1.60
2019-03-09T01:26:11.054Z,2.03
2019-03-09T01:28:16.025Z,1.30
2019-03-09T01:30:20.400Z,1.37
2019-03-09T01:32:24.805Z,1.30
2019-03-09T01:34:29.166Z,1.77
2019-03-09T01:36:33.570Z,1.60
2019-03-09T01:38:37.862Z,1.73
2019-03-09T01:40:42.173Z,1.07
2019-03-09T01:42:46.618Z,1.10
2019-03-09T01:44:50.953Z,1.43
2019-03-09T01:46:55.328Z,1.80
2019-03-09T01:48:59.686Z,1.00
2019-03-09T01:51:04.061Z,1.80
2019-03-09T01:53:08.475Z,2.43
2019-03-09T01:55:12.946Z,2.10
2019-03-09T01:57:17.270Z,2.07
2019-03-09T01:59:21.646Z,1.10
2019-03-09T02:01:25.983Z,1.40
2019-03-09T02:03:30.361Z,1.10
2019-03-09T02:05:34.714Z,2.10
2019-03-09T02:07:39.110Z,1.50
2019-03-09T02:09:43.498Z,1.60
2019-03-09T02:11:47.806Z,2.80
2019-03-09T02:13:52.234Z,1.13
2019-03-09T02:15:56.581Z,1.67
2019-03-09T02:18:00.957Z,2.00
2019-03-09T02:20:05.859Z,1.37
2019-03-09T02:22:10.418Z,1.77
2019-03-09T02:24:14.827Z,1.60
2019-03-09T02:26:19.160Z,1.60
2019-03-09T02:28:23.657Z,2.20
2019-03-09T02:30:27.971Z,1.20
2019-03-09T02:32:32.322Z,1.30
2019-03-09T02:34:36.689Z,1.40
2019-03-09T02:36:41.011Z,1.63
2019-03-09T02:38:57.658Z,1.90
2019-03-09T02:41:02.064Z,1.53
2019-03-09T02:43:06.381Z,1.80
2019-03-09T02:45:12.864Z,1.50
2019-03-09T02:47:18.064Z,1.93
2019-03-09T02:49:22.398Z,2.07
2019-03-09T02:51:26.746Z,1.70
2019-03-09T02:53:31.059Z,0.97
2019-03-09T02:55:35.435Z,1.83
2019-03-09T02:57:39.801Z,2.20
2019-03-09T02:59:44.147Z,0.70
2019-03-09T03:02:08.607Z,1.43
2019-03-09T03:04:13.015Z,2.00
2019-03-09T03:06:17.362Z,1.03
2019-03-09T03:08:21.818Z,1.10
2019-03-09T03:10:26.170Z,1.87
2019-03-09T03:12:30.499Z,2.00
2019-03-09T03:14:34.852Z,2.00
2019-03-09T03:16:39.245Z,1.37
2019-03-09T03:18:43.598Z,1.70
2019-03-09T03:20:47.970Z,0.90
2019-03-09T03:22:52.305Z,1.33
2019-03-09T03:24:56.672Z,1.03
2019-03-09T03:27:01.008Z,1.63
2019-03-09T03:29:05.445Z,0.90
2019-03-09T03:31:10.007Z,1.70
2019-03-09T03:33:14.133Z,1.33
2019-03-09T03:35:18.495Z,0.77
2019-03-09T03:37:22.821Z,0.90
2019-03-09T03:39:27.125Z,1.03
2019-03-09T03:41:31.534Z,1.10
2019-03-09T03:43:35.881Z,1.23
2019-03-09T03:45:40.247Z,1.57
2019-03-09T03:47:44.687Z,1.00
2019-03-09T03:49:49.788Z,0.90
2019-03-09T03:51:54.239Z,1.10
2019-03-09T03:53:58.559Z,0.90
2019-03-09T03:56:03.009Z,1.10
2019-03-09T03:58:07.365Z,1.23
2019-03-09T04:00:11.849Z,0.87
2019-03-09T04:02:16.219Z,1.57
2019-03-09T04:04:20.594Z,0.90
2019-03-09T04:06:25.774Z,1.20
2019-03-09T04:10:35.014Z,1.13
2019-03-09T04:12:39.461Z,1.40
2019-03-09T04:14:43.851Z,1.30
2019-03-09T04:16:48.285Z,1.27
2019-03-09T04:18:52.645Z,1.00
2019-03-09T04:20:56.996Z,1.60
2019-03-09T04:23:01.390Z,0.90
2019-03-09T04:25:05.887Z,1.03
2019-03-09T04:27:10.264Z,1.90
2019-03-09T04:29:14.619Z,0.93
2019-03-09T04:31:18.945Z,0.90
2019-03-09T04:33:23.335Z,0.90
2019-03-09T04:35:27.727Z,1.00
2019-03-09T04:37:32.074Z,0.80
2019-03-09T04:39:36.469Z,1.00
2019-03-09T04:41:40.915Z,1.00
2019-03-09T04:43:45.278Z,1.20
2019-03-09T04:45:49.606Z,0.73
2019-03-09T04:47:53.958Z,0.40
2019-03-09T04:49:58.280Z,0.70
2019-03-09T04:52:02.625Z,1.00
2019-03-09T04:54:06.946Z,0.83
2019-03-09T04:56:11.350Z,1.33
2019-03-09T04:58:15.659Z,1.23
2019-03-09T05:00:20.366Z,0.83
2019-03-09T05:02:24.716Z,1.30
2019-03-09T05:05:04.055Z,1.13
2019-03-09T05:07:08.478Z,1.20
2019-03-09T05:09:22.415Z,1.07
2019-03-09T05:11:30.150Z,1.20
2019-03-09T05:13:40.688Z,1.40
2019-03-09T05:15:45.038Z,1.77
2019-03-09T05:17:49.390Z,1.50
2019-03-09T05:19:53.731Z,1.90
2019-03-09T05:21:58.050Z,1.10
2019-03-09T05:24:02.438Z,1.33
2019-03-09T05:26:06.874Z,2.53
2019-03-09T05:28:11.214Z,2.37
2019-03-09T05:30:21.498Z,2.30
2019-03-09T05:32:25.856Z,2.60
2019-03-09T05:34:30.281Z,1.70
2019-03-09T05:36:34.618Z,1.87
2019-03-09T05:38:38.950Z,2.53
2019-03-09T05:40:43.318Z,2.90
2019-03-09T05:42:47.666Z,1.30
2019-03-09T05:44:52.037Z,2.13
2019-03-09T05:46:56.409Z,2.20
2019-03-09T05:49:00.810Z,2.40
2019-03-09T05:51:05.195Z,1.50
2019-03-09T05:53:13.006Z,2.77
2019-03-09T05:55:18.965Z,2.17
2019-03-09T05:57:23.318Z,3.50
2019-03-09T05:59:27.654Z,2.67
2019-03-09T06:01:32.030Z,3.97
2019-03-09T06:03:36.445Z,2.80
2019-03-09T06:05:50.701Z,4.00
2019-03-09T06:07:55.042Z,4.20
2019-03-09T06:09:59.374Z,3.43
2019-03-09T06:12:03.731Z,3.03
2019-03-09T06:14:08.012Z,1.80
2019-03-09T06:16:12.405Z,2.97
2019-03-09T06:18:16.735Z,3.47
2019-03-09T06:20:21.042Z,2.60
2019-03-09T06:22:25.392Z,4.93
2019-03-09T06:24:29.777Z,4.23
2019-03-09T06:26:34.094Z,4.90
2019-03-09T06:28:38.439Z,3.43
2019-03-09T06:30:42.771Z,5.00
2019-03-09T06:32:58.291Z,5.40
2019-03-09T06:35:02.736Z,0.70
2019-03-09T06:37:13.082Z,4.63
2019-03-09T06:39:19.899Z,4.23
2019-03-09T06:41:30.186Z,4.07
2019-03-09T06:43:34.592Z,4.63
2019-03-09T06:45:38.900Z,2.90
2019-03-09T06:47:43.342Z,3.50
2019-03-09T06:49:47.670Z,4.57
2019-03-09T06:51:52.055Z,3.50
2019-03-09T06:53:56.410Z,4.27
2019-03-09T06:56:00.704Z,3.20
2019-03-09T06:58:05.062Z,2.30
2019-03-09T07:00:31.379Z,3.97
2019-03-09T07:02:35.742Z,2.93
2019-03-09T07:04:40.104Z,4.93
2019-03-09T07:06:44.468Z,4.93
2019-03-09T07:08:48.839Z,4.40
2019-03-09T07:10:53.191Z,2.97
2019-03-09T07:12:57.502Z,3.27
2019-03-09T07:15:33.359Z,4.90
2019-03-09T07:17:37.730Z,2.93
2019-03-09T07:19:42.045Z,2.53
2019-03-09T07:21:46.427Z,5.10
2019-03-09T07:23:50.785Z,2.57
2019-03-09T07:25:55.135Z,2.83
2019-03-09T07:28:01.421Z,3.80
2019-03-09T07:30:09.714Z,4.80
2019-03-09T07:32:14.066Z,4.70
2019-03-09T07:34:25.469Z,4.73
2019-03-09T07:36:29.790Z,4.47
2019-03-09T07:38:34.110Z,3.37
2019-03-09T07:40:38.502Z,3.93
2019-03-09T07:42:42.864Z,3.13
2019-03-09T07:44:47.234Z,4.50
2019-03-09T07:46:51.557Z,4.33
2019-03-09T07:48:55.847Z,3.50
2019-03-09T07:51:00.244Z,5.07
2019-03-09T07:53:04.601Z,4.37
2019-03-09T07:55:11.066Z,3.50
2019-03-09T07:57:15.379Z,4.77
2019-03-09T07:59:19.699Z,3.40
2019-03-09T08:01:24.151Z,3.27
2019-03-09T08:03:28.444Z,4.23
2019-03-09T08:05:32.786Z,2.70
2019-03-09T08:07:37.134Z,2.47
2019-03-09T08:09:41.451Z,4.77
2019-03-09T08:11:45.849Z,2.40
2019-03-09T08:13:50.177Z,2.80
2019-03-09T08:15:54.582Z,1.70
2019-03-09T08:17:58.945Z,3.50
2019-03-09T08:20:03.367Z,1.90
2019-03-09T08:22:07.761Z,3.83
2019-03-09T08:24:12.076Z,2.57
2019-03-09T08:26:16.411Z,3.30
2019-03-09T08:28:20.998Z,1.67
2019-03-09T08:30:25.373Z,3.47
2019-03-09T08:32:29.751Z,3.50
2019-03-09T08:34:34.122Z,2.53
2019-03-09T08:36:38.509Z,4.23
2019-03-09T08:38:42.860Z,2.50
2019-03-09T08:40:51.072Z,1.90
2019-03-09T08:42:55.458Z,2.10
2019-03-09T08:44:59.840Z,1.93
2019-03-09T08:47:06.275Z,3.30
2019-03-09T08:49:10.679Z,3.23
2019-03-09T08:51:18.525Z,2.73
2019-03-09T08:53:22.902Z,3.67
2019-03-09T08:55:27.277Z,2.83
2019-03-09T08:57:31.637Z,4.00
2019-03-09T08:59:36.012Z,3.83
2019-03-09T09:01:42.111Z,4.53
2019-03-09T09:03:46.610Z,2.90
2019-03-09T09:05:50.970Z,2.57
2019-03-09T09:07:55.369Z,3.13
2019-03-09T09:09:59.741Z,2.47
2019-03-09T09:12:04.267Z,2.27
2019-03-09T09:14:08.602Z,1.67
2019-03-09T09:16:12.964Z,3.00
2019-03-09T09:18:17.334Z,2.37
2019-03-09T09:20:22.353Z,1.73
2019-03-09T09:22:26.722Z,1.77
2019-03-09T09:24:31.097Z,2.90
2019-03-09T09:26:35.512Z,2.23
2019-03-09T09:28:40.911Z,2.63
2019-03-09T09:30:45.338Z,2.70
2019-03-09T09:32:49.710Z,2.90
2019-03-09T09:34:54.148Z,2.03
2019-03-09T09:36:58.599Z,2.07
2019-03-09T09:39:03.080Z,2.13
2019-03-09T09:41:07.522Z,1.63
2019-03-09T09:43:11.862Z,3.33
2019-03-09T09:45:16.288Z,1.80
2019-03-09T09:47:20.651Z,3.13
2019-03-09T09:49:25.210Z,3.43
2019-03-09T09:51:30.129Z,3.33
2019-03-09T09:53:34.488Z,1.83
2019-03-09T09:55:38.803Z,1.53
2019-03-09T09:57:43.169Z,2.50
2019-03-09T09:59:47.541Z,3.00
2019-03-09T10:01:51.899Z,1.00
2019-03-09T10:03:56.211Z,2.40
2019-03-09T10:06:00.600Z,1.73
2019-03-09T10:08:04.991Z,2.00
2019-03-09T10:10:10.966Z,2.13
2019-03-09T10:12:15.308Z,2.27
2019-03-09T10:14:26.105Z,3.10
2019-03-09T10:16:30.446Z,1.93
2019-03-09T10:18:34.758Z,2.33
2019-03-09T10:20:39.155Z,2.07
2019-03-09T10:22:43.542Z,2.00
2019-03-09T10:24:47.860Z,2.23
2019-03-09T10:26:52.903Z,1.43
2019-03-09T10:28:57.262Z,2.83
2019-03-09T10:31:01.774Z,1.83
2019-03-09T10:33:06.193Z,1.20
2019-03-09T10:35:11.265Z,1.40
2019-03-09T10:37:15.611Z,2.40
2019-03-09T10:39:19.994Z,1.50
2019-03-09T10:41:24.318Z,2.10
2019-03-09T10:43:28.634Z,2.90
2019-03-09T10:45:33.040Z,1.67
2019-03-09T10:47:37.411Z,3.00
2019-03-09T10:49:41.739Z,2.03
2019-03-09T10:51:46.162Z,1.60
2019-03-09T10:53:50.582Z,1.83
2019-03-09T10:55:54.965Z,2.50
2019-03-09T10:57:59.459Z,1.37
2019-03-09T11:00:04.582Z,1.93
2019-03-09T11:02:08.927Z,1.50
2019-03-09T11:04:13.603Z,1.73
2019-03-09T11:06:20.585Z,2.87
2019-03-09T11:08:24.917Z,1.90
2019-03-09T11:10:29.573Z,1.20
2019-03-09T11:12:34.313Z,1.90
2019-03-09T11:14:38.951Z,2.07
2019-03-09T11:16:43.463Z,2.27
2019-03-09T11:18:47.809Z,1.80
2019-03-09T11:20:52.182Z,2.10
2019-03-09T11:22:56.594Z,1.40
2019-03-09T11:25:03.606Z,1.33
2019-03-09T11:27:05.379Z,1.70
2019-03-09T11:29:09.842Z,1.67
2019-03-09T11:31:14.181Z,1.70
2019-03-09T11:33:18.517Z,1.90
2019-03-09T11:35:23.000Z,2.50
2019-03-09T11:37:27.386Z,2.77
2019-03-09T11:39:31.880Z,1.87
2019-03-09T11:41:36.852Z,2.33
2019-03-09T11:43:41.248Z,2.27
2019-03-09T11:45:45.643Z,2.27
2019-03-09T11:47:50.104Z,2.77
2019-03-09T11:49:54.462Z,2.03
2019-03-09T11:51:58.898Z,2.17
2019-03-09T11:54:03.249Z,2.10
2019-03-09T11:56:07.611Z,2.30
2019-03-09T11:58:11.973Z,2.20
2019-03-09T12:00:19.099Z,3.10
2019-03-09T12:02:23.461Z,1.73
2019-03-09T12:04:27.829Z,2.50
2019-03-09T12:06:32.262Z,1.67
2019-03-09T12:08:36.622Z,1.43
2019-03-09T12:10:40.987Z,2.17
2019-03-09T12:12:45.399Z,2.13
2019-03-09T12:14:49.785Z,2.43
2019-03-09T12:16:54.148Z,1.63
2019-03-09T12:18:58.583Z,0.90
2019-03-09T12:21:03.018Z,1.37
2019-03-09T12:23:17.722Z,1.80
2019-03-09T12:25:22.106Z,1.77
2019-03-09T12:27:26.463Z,1.70
2019-03-09T12:29:30.883Z,1.40
2019-03-09T12:31:35.254Z,1.73
2019-03-09T12:33:39.617Z,1.23
2019-03-09T12:35:44.312Z,1.60
2019-03-09T12:37:48.556Z,0.90
2019-03-09T12:39:52.944Z,2.00
2019-03-09T12:41:57.310Z,1.30
2019-03-09T12:44:01.727Z,2.03
2019-03-09T12:46:06.096Z,1.27
2019-03-09T12:48:10.520Z,1.60
2019-03-09T12:50:16.278Z,1.40
2019-03-09T12:52:20.684Z,1.47
2019-03-09T12:54:25.025Z,0.90
2019-03-09T12:56:30.695Z,1.93
2019-03-09T12:58:35.066Z,1.07
2019-03-09T13:00:39.408Z,1.10
2019-03-09T13:02:43.797Z,1.20
2019-03-09T13:04:48.304Z,1.30
2019-03-09T13:06:52.690Z,1.50
2019-03-09T13:08:57.039Z,1.23
2019-03-09T13:11:01.426Z,1.27
2019-03-09T13:13:05.813Z,1.07
2019-03-09T13:15:10.310Z,1.23
2019-03-09T13:17:14.696Z,1.53
2019-03-09T13:19:19.098Z,0.80
2019-03-09T13:21:23.437Z,0.87
2019-03-09T13:23:27.843Z,1.43
2019-03-09T13:25:32.203Z,1.40
2019-03-09T13:27:36.665Z,1.43
2019-03-09T13:29:41.030Z,1.43
2019-03-09T13:31:45.437Z,1.20
2019-03-09T13:33:49.772Z,1.23
2019-03-09T13:35:54.151Z,1.10
2019-03-09T13:37:58.533Z,1.57
2019-03-09T13:40:03.065Z,1.57
2019-03-09T13:42:07.424Z,1.37
2019-03-09T13:44:11.838Z,1.10
2019-03-09T13:46:16.244Z,2.03
2019-03-09T13:48:20.607Z,1.50
2019-03-09T13:50:25.059Z,1.67
2019-03-09T13:52:29.446Z,1.70
2019-03-09T13:54:33.906Z,1.67
2019-03-09T13:56:38.316Z,1.70
2019-03-09T13:58:43.178Z,1.67
2019-03-09T14:00:47.570Z,1.83
2019-03-09T14:02:51.917Z,1.23
2019-03-09T14:04:56.292Z,1.73
2019-03-09T14:07:00.665Z,1.60
2019-03-09T14:09:05.571Z,1.83
2019-03-09T14:11:09.986Z,2.03
2019-03-09T14:13:14.335Z,1.20
2019-03-09T14:15:18.714Z,2.10
2019-03-09T14:17:23.142Z,2.33
2019-03-09T14:19:27.541Z,1.30
2019-03-09T14:21:31.883Z,2.13
2019-03-09T14:23:36.274Z,2.47
2019-03-09T14:25:40.625Z,1.53
2019-03-09T14:27:44.982Z,1.40
2019-03-09T14:29:49.373Z,1.20
2019-03-09T14:31:53.735Z,1.20
2019-03-09T14:33:58.111Z,1.53
2019-03-09T14:36:02.564Z,1.80
2019-03-09T14:38:06.918Z,1.13
2019-03-09T14:40:11.438Z,1.33
2019-03-09T14:42:15.876Z,1.80
2019-03-09T14:44:20.242Z,2.10
2019-03-09T14:46:24.561Z,2.10
2019-03-09T14:48:28.965Z,1.33
2019-03-09T14:50:33.318Z,1.33
2019-03-09T14:52:37.683Z,1.10
2019-03-09T14:54:42.396Z,1.20
2019-03-09T14:56:46.714Z,0.77
2019-03-09T14:58:51.041Z,1.67
2019-03-09T15:00:55.457Z,1.10
2019-03-09T15:02:59.782Z,0.50
2019-03-09T15:05:04.439Z,1.10
2019-03-09T15:07:09.626Z,1.20
2019-03-09T15:09:14.030Z,1.20
2019-03-09T15:11:18.359Z,1.10
2019-03-09T15:13:22.858Z,1.73
2019-03-09T15:15:27.241Z,1.20
2019-03-09T15:17:31.620Z,1.40
2019-03-09T15:19:36.003Z,1.33
2019-03-09T15:21:40.332Z,1.20
2019-03-09T15:23:44.747Z,1.20
2019-03-09T15:25:49.146Z,1.30
2019-03-09T15:27:53.570Z,1.43
2019-03-09T15:29:57.969Z,1.77
2019-03-09T15:32:02.458Z,1.27
2019-03-09T15:34:06.974Z,1.87
2019-03-09T15:36:11.342Z,2.27
2019-03-09T15:38:15.790Z,1.37
2019-03-09T15:40:20.274Z,2.43
2019-03-09T15:42:24.614Z,2.10
2019-03-09T15:44:29.198Z,1.80
2019-03-09T15:46:33.590Z,1.33
2019-03-09T15:48:38.014Z,2.27
2019-03-09T15:50:42.406Z,2.40
2019-03-09T15:52:46.966Z,1.50
2019-03-09T15:54:51.635Z,0.90
2019-03-09T15:56:56.169Z,1.13
2019-03-09T15:59:00.626Z,0.80
2019-03-09T16:01:05.114Z,1.20
2019-03-09T16:03:09.520Z,0.97
2019-03-09T16:05:13.958Z,1.17
2019-03-09T16:07:18.336Z,0.93
2019-03-09T16:09:22.727Z,0.80
2019-03-09T16:11:27.158Z,0.70
2019-03-09T16:13:31.697Z,1.60
2019-03-09T16:15:36.027Z,0.90
2019-03-09T16:17:40.530Z,1.43
2019-03-09T16:19:44.934Z,1.37
2019-03-09T16:21:51.986Z,0.90
2019-03-09T16:23:57.645Z,1.90
2019-03-09T16:26:02.174Z,1.33
2019-03-09T16:28:06.726Z,1.17
2019-03-09T16:30:13.837Z,1.50
2019-03-09T16:32:19.293Z,1.07
2019-03-09T16:34:24.271Z,1.30
2019-03-09T16:36:28.782Z,1.43
2019-03-09T16:38:33.243Z,0.87
2019-03-09T16:40:40.857Z,0.80
2019-03-09T16:42:42.039Z,0.80
2019-03-09T16:44:46.450Z,0.67
2019-03-09T16:46:50.860Z,0.60
2019-03-09T16:48:55.279Z,1.33
2019-03-09T16:50:59.683Z,0.60
2019-03-09T16:53:04.067Z,1.33
2019-03-09T16:55:08.553Z,1.10
2019-03-09T16:57:13.899Z,1.00
2019-03-09T16:59:18.315Z,1.30
2019-03-09T17:01:22.739Z,2.00
2019-03-09T17:03:27.179Z,1.17
2019-03-09T17:05:31.555Z,2.30
2019-03-09T17:07:42.668Z,3.03
2019-03-09T17:09:53.401Z,2.30
2019-03-09T17:11:57.829Z,2.70
2019-03-09T17:14:02.227Z,2.63
2019-03-09T17:16:06.610Z,1.87
2019-03-09T17:18:10.940Z,1.37
2019-03-09T17:20:15.525Z,1.47
2019-03-09T17:22:19.888Z,1.63
2019-03-09T17:24:30.910Z,1.30
2019-03-09T17:26:35.306Z,1.33
2019-03-09T17:28:40.875Z,1.60
2019-03-09T17:30:45.336Z,2.80
2019-03-09T17:32:49.682Z,1.67
2019-03-09T17:34:54.090Z,1.60
2019-03-09T17:36:59.422Z,1.60
2019-03-09T17:39:03.909Z,2.33
2019-03-09T17:41:08.273Z,1.40
2019-03-09T17:43:12.666Z,1.30
2019-03-09T17:45:18.421Z,1.27
2019-03-09T17:47:22.784Z,1.00
2019-03-09T17:49:27.217Z,1.47
2019-03-09T17:51:31.709Z,1.40
2019-03-09T17:53:36.143Z,1.93
2019-03-09T17:55:40.599Z,1.63
2019-03-09T17:57:45.102Z,1.03
2019-03-09T17:59:49.430Z,1.83
2019-03-09T18:01:53.778Z,2.30
2019-03-09T18:03:58.860Z,1.70
2019-03-09T18:06:03.310Z,1.40
2019-03-09T18:08:07.725Z,0.77
2019-03-09T18:10:15.398Z,0.90
2019-03-09T18:12:19.738Z,1.10
2019-03-09T18:14:24.135Z,1.30
2019-03-09T18:16:28.566Z,1.40
2019-03-09T18:18:32.937Z,0.90
2019-03-09T18:20:37.430Z,0.70
2019-03-09T18:22:41.874Z,1.00
2019-03-09T18:24:46.179Z,1.17
2019-03-09T18:26:50.502Z,0.80
2019-03-09T18:28:54.874Z,1.77
2019-03-09T18:30:59.260Z,1.60
2019-03-09T18:33:03.659Z,0.90
2019-03-09T18:35:08.322Z,0.83
2019-03-09T18:37:12.668Z,1.20
2019-03-09T18:39:17.086Z,1.03
2019-03-09T18:41:21.451Z,1.43
2019-03-09T18:43:25.837Z,0.90
2019-03-09T18:45:30.205Z,1.07
2019-03-09T18:47:34.750Z,1.67
2019-03-09T18:49:39.168Z,2.03
2019-03-09T18:51:43.568Z,1.30
2019-03-09T18:53:47.935Z,0.83
2019-03-09T18:55:59.134Z,1.60
2019-03-09T18:57:56.778Z,1.80
2019-03-09T19:00:01.160Z,1.27
2019-03-09T19:02:05.590Z,1.27
2019-03-09T19:04:10.875Z,1.23
2019-03-09T19:06:15.501Z,1.20
2019-03-09T19:08:19.865Z,1.53
2019-03-09T19:10:24.308Z,0.77
2019-03-09T19:12:28.719Z,1.70
2019-03-09T19:14:33.189Z,1.27
2019-03-09T19:16:37.612Z,1.30
2019-03-09T19:18:42.694Z,1.57
2019-03-09T19:20:47.396Z,0.50
2019-03-09T19:22:51.820Z,1.80
2019-03-09T19:24:56.816Z,1.67
2019-03-09T19:27:01.985Z,1.33
2019-03-09T19:29:08.332Z,2.30
2019-03-09T19:31:12.929Z,1.57
2019-03-09T19:33:18.183Z,1.10
2019-03-09T19:35:22.984Z,1.27
2019-03-09T19:37:28.406Z,0.60
2019-03-09T19:39:32.958Z,0.50
2019-03-09T19:41:37.392Z,1.33
2019-03-09T19:43:42.310Z,0.83
2019-03-09T19:45:47.331Z,0.87
2019-03-09T19:47:53.878Z,1.43
2019-03-09T19:50:03.856Z,1.33
2019-03-09T19:52:19.520Z,1.57
2019-03-09T19:54:24.205Z,0.73
2019-03-09T19:56:29.762Z,0.60
2019-03-09T19:58:35.275Z,1.07
2019-03-09T20:00:40.811Z,1.50
2019-03-09T20:02:46.671Z,1.80
2019-03-09T20:04:52.187Z,1.20
2019-03-09T20:06:57.494Z,1.13
2019-03-09T20:09:03.692Z,0.93
2019-03-09T20:11:14.789Z,2.23
2019-03-09T20:13:19.959Z,1.33
2019-03-09T20:15:25.081Z,0.90
2019-03-09T20:17:30.362Z,1.20
2019-03-09T20:19:35.833Z,1.30
2019-03-09T20:21:41.238Z,0.97
2019-03-09T20:23:46.340Z,1.27
2019-03-09T20:25:51.407Z,1.03
2019-03-09T20:27:56.718Z,1.57
2019-03-09T20:30:02.222Z,1.13
2019-03-09T20:32:08.478Z,1.07
2019-03-09T20:34:13.925Z,1.87
2019-03-09T20:36:19.370Z,2.03
2019-03-09T20:38:24.790Z,2.13
2019-03-09T20:40:30.426Z,1.77
2019-03-09T20:42:35.828Z,1.43
2019-03-09T20:44:41.121Z,1.33
2019-03-09T20:46:46.658Z,1.83
2019-03-09T20:48:51.022Z,1.37
2019-03-09T20:50:56.179Z,1.43
2019-03-09T20:53:00.611Z,2.37
2019-03-09T20:55:05.084Z,2.20
2019-03-09T20:57:09.544Z,2.23
2019-03-09T20:59:13.912Z,2.27
2019-03-09T21:01:18.373Z,2.20
2019-03-09T21:03:23.010Z,1.90
2019-03-09T21:05:27.071Z,1.80
2019-03-09T21:07:31.484Z,2.00
2019-03-09T21:09:35.928Z,1.20
2019-03-09T21:11:40.269Z,2.10
2019-03-09T21:13:44.718Z,2.00
2019-03-09T21:15:49.102Z,3.17
2019-03-09T21:17:53.512Z,1.73
2019-03-09T21:19:57.925Z,2.63
2019-03-09T21:22:02.347Z,2.17
2019-03-09T21:24:06.750Z,2.70
2019-03-09T21:26:11.222Z,2.90
2019-03-09T21:28:15.568Z,2.63
2019-03-09T21:30:19.978Z,2.93
2019-03-09T21:32:24.458Z,2.23
2019-03-09T21:34:28.845Z,1.30
2019-03-09T21:36:33.438Z,2.90
2019-03-09T21:38:37.841Z,1.93
2019-03-09T21:40:42.275Z,2.33
2019-03-09T21:42:46.655Z,2.77
2019-03-09T21:44:51.084Z,3.23
2019-03-09T21:46:55.447Z,1.50
2019-03-09T21:48:59.808Z,2.47
2019-03-09T21:51:04.219Z,2.40
2019-03-09T21:53:08.574Z,2.10
2019-03-09T21:55:13.007Z,1.33
2019-03-09T21:57:17.322Z,2.20
2019-03-09T21:59:21.701Z,1.77
2019-03-09T22:01:26.063Z,2.10
2019-03-09T22:03:30.491Z,1.40
2019-03-09T22:05:34.888Z,2.53
2019-03-09T22:07:39.241Z,1.83
2019-03-09T22:09:43.572Z,1.70
2019-03-09T22:11:47.943Z,2.23
2019-03-09T22:13:52.410Z,1.40
2019-03-09T22:15:56.730Z,0.70
2019-03-09T22:18:01.118Z,1.80
2019-03-09T22:20:06.034Z,1.67
2019-03-09T22:22:10.445Z,2.10
2019-03-09T22:24:19.999Z,2.47
2019-03-09T22:26:24.506Z,3.07
2019-03-09T22:28:28.851Z,1.40
2019-03-09T22:30:33.288Z,2.53
2019-03-09T22:32:37.670Z,1.73
2019-03-09T22:34:42.002Z,1.83
2019-03-09T22:36:46.365Z,1.70
2019-03-09T22:38:50.737Z,1.60
2019-03-09T22:40:55.133Z,1.73
2019-03-09T22:42:59.540Z,1.87
2019-03-09T22:45:03.951Z,1.40
2019-03-09T22:47:11.940Z,1.20
2019-03-09T22:49:12.734Z,1.07
2019-03-09T22:51:17.148Z,0.67
2019-03-09T22:53:21.539Z,1.40
2019-03-09T22:55:25.902Z,1.53
2019-03-09T22:57:30.292Z,1.57
2019-03-09T22:59:34.666Z,1.27
2019-03-09T23:01:39.068Z,2.47
2019-03-09T23:03:43.439Z,2.40
2019-03-09T23:05:47.898Z,2.37
2019-03-09T23:07:52.281Z,1.67
2019-03-09T23:09:56.678Z,1.20
2019-03-09T23:12:01.098Z,1.60
2019-03-09T23:14:05.498Z,1.87
2019-03-09T23:16:09.838Z,1.50
2019-03-09T23:18:14.204Z,2.10
2019-03-09T23:20:18.641Z,1.80
2019-03-09T23:22:22.986Z,1.30
2019-03-09T23:24:27.338Z,1.20
2019-03-09T23:26:31.694Z,1.57
2019-03-09T23:28:47.403Z,0.83
2019-03-09T23:30:51.864Z,1.90
2019-03-09T23:32:56.240Z,1.73
2019-03-09T23:35:00.663Z,1.20
2019-03-09T23:37:05.082Z,0.60
2019-03-09T23:39:09.465Z,1.20
2019-03-09T23:41:13.866Z,1.70
2019-03-09T23:43:18.209Z,1.33
2019-03-09T23:45:22.591Z,1.97
2019-03-09T23:47:26.966Z,1.57
2019-03-09T23:49:31.293Z,1.70
2019-03-09T23:51:35.721Z,2.23
2019-03-09T23:53:40.321Z,1.80
2019-03-09T23:55:44.728Z,2.10
2019-03-09T23:57:49.275Z,1.03
2019-03-09T23:59:53.662Z,1.40
